createdAt,value
2023-05-11T00:00:38.164Z,4.01
2023-05-11T00:03:04.703Z,3.95
2023-05-11T00:05:31.216Z,3.88
2023-05-11T00:07:57.698Z,3.78
2023-05-11T00:10:24.309Z,3.69
2023-05-11T00:12:50.761Z,3.59
2023-05-11T00:15:17.491Z,3.49
2023-05-11T00:17:44.041Z,3.38
2023-05-11T00:20:11.288Z,3.30
2023-05-11T00:22:38.341Z,3.21
2023-05-11T00:25:05.538Z,3.15
2023-05-11T00:27:32.034Z,3.11
2023-05-11T00:29:58.824Z,3.10
2023-05-11T00:32:25.332Z,3.08
2023-05-11T00:34:51.800Z,3.10
2023-05-11T00:37:18.263Z,3.11
2023-05-11T00:39:44.745Z,3.11
2023-05-11T00:42:11.331Z,3.11
2023-05-11T00:44:37.886Z,3.11
2023-05-11T00:47:04.623Z,3.11
2023-05-11T00:49:31.398Z,3.09
2023-05-11T00:51:57.912Z,3.04
2023-05-11T00:54:25.219Z,3.01
2023-05-11T00:56:51.916Z,2.98
2023-05-11T00:59:18.969Z,2.93
2023-05-11T01:01:45.794Z,2.90
2023-05-11T01:04:13.548Z,2.85
2023-05-11T01:07:04.555Z,2.78
2023-05-11T01:09:54.158Z,2.69
2023-05-11T01:12:33.022Z,2.63
2023-05-11T01:15:10.650Z,2.60
2023-05-11T01:17:52.889Z,2.53
2023-05-11T01:20:27.080Z,2.53
2023-05-11T01:23:15.741Z,2.56
2023-05-11T01:25:48.160Z,2.55
2023-05-11T01:28:43.014Z,2.53
2023-05-11T01:31:11.609Z,2.53
2023-05-11T01:33:43.776Z,2.49
2023-05-11T01:36:12.813Z,2.48
2023-05-11T01:38:42.175Z,2.46
2023-05-11T01:41:35.897Z,2.42
2023-05-11T01:44:07.542Z,2.37
2023-05-11T01:46:34.615Z,2.34
2023-05-11T01:49:05.953Z,2.31
2023-05-11T01:51:42.009Z,2.24
2023-05-11T01:54:10.087Z,2.18
2023-05-11T01:56:38.602Z,2.13
2023-05-11T01:59:05.866Z,2.09
2023-05-11T02:01:35.147Z,2.06
2023-05-11T02:04:03.558Z,2.02
2023-05-11T02:06:32.242Z,1.98
2023-05-11T02:09:00.731Z,2.02
2023-05-11T02:11:30.969Z,2.02
2023-05-11T02:13:59.274Z,1.97
2023-05-11T02:16:27.048Z,1.95
2023-05-11T02:18:55.697Z,1.92
2023-05-11T02:21:22.979Z,1.88
2023-05-11T02:23:50.772Z,1.83
2023-05-11T02:26:17.442Z,1.79
2023-05-11T02:28:43.985Z,1.73
2023-05-11T02:31:17.610Z,1.71
2023-05-11T02:33:49.559Z,1.67
2023-05-11T02:36:21.462Z,1.66
2023-05-11T02:38:49.130Z,1.62
2023-05-11T02:41:21.792Z,1.58
2023-05-11T02:43:52.133Z,1.55
2023-05-11T02:46:24.285Z,1.54
2023-05-11T02:48:58.107Z,1.52
2023-05-11T02:51:34.956Z,1.51
2023-05-11T02:54:02.456Z,1.48
2023-05-11T02:56:29.718Z,1.46
2023-05-11T02:58:56.380Z,1.44
2023-05-11T03:01:24.153Z,1.40
2023-05-11T03:03:51.000Z,1.39
2023-05-11T03:06:17.607Z,1.37
2023-05-11T03:08:44.307Z,1.37
2023-05-11T03:11:13.351Z,1.34
2023-05-11T03:13:40.037Z,1.33
2023-05-11T03:16:07.789Z,1.36
2023-05-11T03:18:36.161Z,1.36
2023-05-11T03:21:03.347Z,1.37
2023-05-11T03:23:30.647Z,1.39
2023-05-11T03:25:58.899Z,1.42
2023-05-11T03:28:26.951Z,1.45
2023-05-11T03:30:54.277Z,1.47
2023-05-11T03:33:21.349Z,1.52
2023-05-11T03:35:50.757Z,1.58
2023-05-11T03:38:18.916Z,1.65
2023-05-11T03:40:47.422Z,1.82
2023-05-11T03:43:18.137Z,2.13
2023-05-11T03:45:46.899Z,2.51
2023-05-11T03:48:15.649Z,2.93
2023-05-11T03:50:43.598Z,3.35
2023-05-11T03:53:11.107Z,3.77
2023-05-11T03:55:37.974Z,4.20
2023-05-11T03:58:11.507Z,4.62
2023-05-11T04:00:42.011Z,5.03
2023-05-11T04:03:11.727Z,5.47
2023-05-11T04:05:38.346Z,5.96
2023-05-11T04:08:05.345Z,6.49
2023-05-11T04:10:32.092Z,7.05
2023-05-11T04:12:58.741Z,7.52
2023-05-11T04:15:25.178Z,8.03
2023-05-11T04:17:51.751Z,8.45
2023-05-11T04:20:18.519Z,8.77
2023-05-11T04:22:45.149Z,9.07
2023-05-11T04:25:11.861Z,9.55
2023-05-11T04:27:38.317Z,9.98
2023-05-11T04:30:06.114Z,10.19
2023-05-11T04:32:32.677Z,10.36
2023-05-11T04:34:59.192Z,10.75
2023-05-11T04:37:25.751Z,11.22
2023-05-11T04:39:52.899Z,11.50
2023-05-11T04:42:19.566Z,11.60
2023-05-11T04:44:46.338Z,11.91
2023-05-11T04:47:14.417Z,11.95
2023-05-11T04:49:40.949Z,11.89
2023-05-11T04:52:08.227Z,11.96
2023-05-11T04:54:34.901Z,12.40
2023-05-11T04:57:01.420Z,12.79
2023-05-11T04:59:28.034Z,12.95
2023-05-11T05:01:54.622Z,13.08
2023-05-11T05:04:21.244Z,13.15
2023-05-11T05:06:47.767Z,13.23
2023-05-11T05:09:14.267Z,13.49
2023-05-11T05:11:40.825Z,13.78
2023-05-11T05:14:07.271Z,13.87
2023-05-11T05:16:33.786Z,13.69
2023-05-11T05:19:00.520Z,13.35
2023-05-11T05:21:27.134Z,13.01
2023-05-11T05:23:53.682Z,12.77
2023-05-11T05:26:20.224Z,12.79
2023-05-11T05:28:47.248Z,13.28
2023-05-11T05:31:14.000Z,13.49
2023-05-11T05:33:41.184Z,13.22
2023-05-11T05:36:08.093Z,13.46
2023-05-11T05:38:34.570Z,13.95
2023-05-11T05:41:01.094Z,14.33
2023-05-11T05:43:27.573Z,14.63
2023-05-11T05:45:54.453Z,15.02
2023-05-11T05:48:21.025Z,15.43
2023-05-11T05:50:47.598Z,15.29
2023-05-11T05:53:14.416Z,15.57
2023-05-11T05:55:40.848Z,15.98
2023-05-11T05:58:07.283Z,16.19
2023-05-11T06:00:35.486Z,16.29
2023-05-11T06:03:02.082Z,16.06
2023-05-11T06:05:28.791Z,15.96
2023-05-11T06:08:09.325Z,16.21
2023-05-11T06:10:36.882Z,16.45
2023-05-11T06:13:03.425Z,16.74
2023-05-11T06:15:29.864Z,17.17
2023-05-11T06:17:56.855Z,17.11
2023-05-11T06:20:23.468Z,16.86
2023-05-11T06:22:49.990Z,17.08
2023-05-11T06:25:16.741Z,17.22
2023-05-11T06:27:43.255Z,17.29
2023-05-11T06:30:10.319Z,17.61
2023-05-11T06:32:36.847Z,17.71
2023-05-11T06:35:03.382Z,17.43
2023-05-11T06:37:30.675Z,17.59
2023-05-11T06:39:58.580Z,18.17
2023-05-11T06:42:25.467Z,18.51
2023-05-11T06:44:51.955Z,18.65
2023-05-11T06:47:18.541Z,18.82
2023-05-11T06:49:45.110Z,19.18
2023-05-11T06:52:11.557Z,19.25
2023-05-11T06:54:38.112Z,19.56
2023-05-11T06:57:04.721Z,19.80
2023-05-11T06:59:31.277Z,19.99
2023-05-11T07:01:58.265Z,19.78
2023-05-11T07:04:24.963Z,19.48
2023-05-11T07:06:51.678Z,19.63
2023-05-11T07:09:18.168Z,19.57
2023-05-11T07:11:44.603Z,19.58
2023-05-11T07:14:11.046Z,19.63
2023-05-11T07:16:37.654Z,19.43
2023-05-11T07:19:05.662Z,19.44
2023-05-11T07:21:32.327Z,19.75
2023-05-11T07:23:58.758Z,20.14
2023-05-11T07:26:25.309Z,20.75
2023-05-11T07:28:52.032Z,21.08
2023-05-11T07:31:18.645Z,21.38
2023-05-11T07:33:45.221Z,21.58
2023-05-11T07:36:11.816Z,21.53
2023-05-11T07:38:38.386Z,21.88
2023-05-11T07:41:06.874Z,22.39
2023-05-11T07:43:33.910Z,22.80
2023-05-11T07:46:00.345Z,22.78
2023-05-11T07:48:26.846Z,22.84
2023-05-11T07:50:53.397Z,23.01
2023-05-11T07:53:19.839Z,23.10
2023-05-11T07:55:46.674Z,23.31
2023-05-11T07:58:13.220Z,23.45
2023-05-11T08:00:39.695Z,23.24
2023-05-11T08:03:06.232Z,22.75
2023-05-11T08:05:32.841Z,22.67
2023-05-11T08:07:59.521Z,22.49
2023-05-11T08:10:26.022Z,22.22
2023-05-11T08:12:52.531Z,22.13
2023-05-11T08:15:19.448Z,21.94
2023-05-11T08:17:46.443Z,21.77
2023-05-11T08:20:13.542Z,21.74
2023-05-11T08:22:39.992Z,21.66
2023-05-11T08:25:07.494Z,21.58
2023-05-11T08:27:33.980Z,21.50
2023-05-11T08:30:01.184Z,21.55
2023-05-11T08:32:27.861Z,21.52
2023-05-11T08:34:54.401Z,21.32
2023-05-11T08:37:21.442Z,21.21
2023-05-11T08:39:48.146Z,21.32
2023-05-11T08:42:16.505Z,21.47
2023-05-11T08:44:44.816Z,21.22
2023-05-11T08:49:42.000Z,20.99
2023-05-11T08:52:09.507Z,20.88
2023-05-11T08:54:36.248Z,20.94
2023-05-11T08:57:04.028Z,21.03
2023-05-11T08:59:32.380Z,21.24
2023-05-11T09:02:00.306Z,21.24
2023-05-11T09:04:27.925Z,20.89
2023-05-11T09:06:55.078Z,20.68
2023-05-11T09:09:21.823Z,20.62
2023-05-11T09:11:49.648Z,20.78
2023-05-11T09:14:16.356Z,20.92
2023-05-11T09:16:43.006Z,21.15
2023-05-11T09:19:14.959Z,21.06
2023-05-11T09:21:41.816Z,21.20
2023-05-11T09:24:12.253Z,21.26
2023-05-11T09:26:39.130Z,21.28
2023-05-11T09:29:05.759Z,21.07
2023-05-11T09:31:46.983Z,20.97
2023-05-11T09:34:17.930Z,21.24
2023-05-11T09:36:46.300Z,21.57
2023-05-11T09:39:15.894Z,21.79
2023-05-11T09:41:43.175Z,21.68
2023-05-11T09:44:16.658Z,21.51
2023-05-11T09:46:45.028Z,21.29
2023-05-11T09:49:12.459Z,21.39
2023-05-11T09:51:40.979Z,21.29
2023-05-11T09:54:19.319Z,21.37
2023-05-11T09:56:55.370Z,21.48
2023-05-11T09:59:41.718Z,21.40
2023-05-11T10:02:36.644Z,21.51
2023-05-11T10:05:11.692Z,21.91
2023-05-11T10:07:38.353Z,21.89
2023-05-11T10:10:07.113Z,21.96
2023-05-11T10:12:34.676Z,21.93
2023-05-11T10:15:03.500Z,22.07
2023-05-11T10:17:30.212Z,22.50
2023-05-11T10:19:57.920Z,22.82
2023-05-11T10:22:29.302Z,22.86
2023-05-11T10:25:00.035Z,22.90
2023-05-11T10:27:27.587Z,22.59
2023-05-11T10:29:54.197Z,22.80
2023-05-11T10:32:21.502Z,22.96
2023-05-11T10:34:48.605Z,22.96
2023-05-11T10:37:16.705Z,23.08
2023-05-11T10:39:48.428Z,23.16
2023-05-11T10:42:30.414Z,22.81
2023-05-11T10:45:22.362Z,22.60
2023-05-11T10:48:07.712Z,22.41
2023-05-11T10:51:00.210Z,22.27
2023-05-11T10:53:55.847Z,22.34
2023-05-11T10:56:57.656Z,22.51
2023-05-11T10:59:45.799Z,22.49
2023-05-11T11:02:12.366Z,22.27
2023-05-11T11:04:47.495Z,22.09
2023-05-11T11:07:14.015Z,22.06
2023-05-11T11:09:59.044Z,21.92
2023-05-11T11:12:26.744Z,21.97
2023-05-11T11:15:05.249Z,22.10
2023-05-11T11:17:36.115Z,22.15
2023-05-11T11:20:04.958Z,22.16
2023-05-11T11:22:34.423Z,21.99
2023-05-11T11:25:01.980Z,21.74
2023-05-11T11:27:40.799Z,21.79
2023-05-11T11:30:17.626Z,22.06
2023-05-11T11:32:46.185Z,22.06
2023-05-11T11:35:41.361Z,21.91
2023-05-11T11:38:12.701Z,22.02
2023-05-11T11:43:15.658Z,22.69
2023-05-11T11:45:55.812Z,22.45
2023-05-11T11:48:29.312Z,22.20
2023-05-11T11:51:16.059Z,22.27
2023-05-11T11:53:42.780Z,22.36
2023-05-11T11:56:29.192Z,22.46
2023-05-11T11:58:55.652Z,22.42
2023-05-11T12:01:25.473Z,22.13
2023-05-11T12:04:16.275Z,22.06
2023-05-11T12:06:45.754Z,22.09
2023-05-11T12:09:18.706Z,21.97
2023-05-11T12:11:46.741Z,21.74
2023-05-11T12:14:13.497Z,21.56
2023-05-11T12:16:40.060Z,21.58
2023-05-11T12:19:06.536Z,21.63
2023-05-11T12:21:33.530Z,21.87
2023-05-11T12:24:05.717Z,22.38
2023-05-11T12:26:33.479Z,22.78
2023-05-11T12:29:11.474Z,22.86
2023-05-11T12:31:45.883Z,22.86
2023-05-11T12:34:16.370Z,22.57
2023-05-11T12:36:44.952Z,22.27
2023-05-11T12:39:22.331Z,22.09
2023-05-11T12:41:50.248Z,22.16
2023-05-11T12:44:17.798Z,22.13
2023-05-11T12:46:46.650Z,21.79
2023-05-11T12:49:16.960Z,21.58
2023-05-11T12:52:05.717Z,21.54
2023-05-11T12:54:34.324Z,21.67
2023-05-11T12:57:02.320Z,21.67
2023-05-11T12:59:33.535Z,21.88
2023-05-11T13:02:20.537Z,22.17
2023-05-11T13:04:48.266Z,22.34
2023-05-11T13:07:25.999Z,22.49
2023-05-11T13:10:00.273Z,22.52
2023-05-11T13:12:30.253Z,22.30
2023-05-11T13:15:08.126Z,21.99
2023-05-11T13:17:37.146Z,21.79
2023-05-11T13:20:24.938Z,21.67
2023-05-11T13:22:51.897Z,21.66
2023-05-11T13:25:21.832Z,22.11
2023-05-11T13:27:48.616Z,22.57
2023-05-11T13:30:15.309Z,23.19
2023-05-11T13:32:41.918Z,23.41
2023-05-11T13:35:09.153Z,23.04
2023-05-11T13:37:35.589Z,23.29
2023-05-11T13:40:02.044Z,24.31
2023-05-11T13:42:28.600Z,25.07
2023-05-11T13:44:55.220Z,25.37
2023-05-11T13:47:21.664Z,25.61
2023-05-11T13:49:48.135Z,26.42
2023-05-11T13:52:14.583Z,27.05
2023-05-11T13:54:41.011Z,27.51
2023-05-11T13:57:07.839Z,27.95
2023-05-11T13:59:34.370Z,28.45
2023-05-11T14:02:01.012Z,28.80
2023-05-11T14:04:27.665Z,29.39
2023-05-11T14:06:54.111Z,29.66
2023-05-11T14:09:23.423Z,29.56
2023-05-11T14:11:50.136Z,29.31
2023-05-11T14:14:17.345Z,29.43
2023-05-11T14:16:43.858Z,29.35
2023-05-11T14:19:10.349Z,29.48
2023-05-11T14:21:37.486Z,29.67
2023-05-11T14:24:11.486Z,29.91
2023-05-11T14:26:39.775Z,29.87
2023-05-11T14:29:06.245Z,29.65
2023-05-11T14:31:35.422Z,29.83
2023-05-11T14:34:03.731Z,29.78
2023-05-11T14:36:30.506Z,29.81
2023-05-11T14:38:57.001Z,30.12
2023-05-11T14:41:23.582Z,30.42
2023-05-11T14:43:49.997Z,30.32
2023-05-11T14:46:17.032Z,30.47
2023-05-11T14:48:43.664Z,29.94
2023-05-11T14:51:10.178Z,28.70
2023-05-11T14:53:36.695Z,27.16
2023-05-11T14:56:03.762Z,26.09
2023-05-11T14:58:30.185Z,25.12
2023-05-11T15:00:56.603Z,24.28
2023-05-11T15:03:23.609Z,23.62
2023-05-11T15:05:50.062Z,23.16
2023-05-11T15:08:29.038Z,22.84
2023-05-11T15:10:56.832Z,22.44
2023-05-11T15:13:23.226Z,22.19
2023-05-11T15:15:49.759Z,22.08
2023-05-11T15:18:16.333Z,21.83
2023-05-11T15:20:44.247Z,21.61
2023-05-11T15:23:10.956Z,21.39
2023-05-11T15:25:37.481Z,21.38
2023-05-11T15:28:03.992Z,21.49
2023-05-11T15:30:32.607Z,21.43
2023-05-11T15:32:59.746Z,21.35
2023-05-11T15:35:26.362Z,21.27
2023-05-11T15:37:52.804Z,21.55
2023-05-11T15:40:19.354Z,22.27
2023-05-11T15:42:45.990Z,24.10
2023-05-11T15:45:12.499Z,24.17
2023-05-11T15:47:39.022Z,23.24
2023-05-11T15:50:06.602Z,22.46
2023-05-11T15:52:33.005Z,21.91
2023-05-11T15:54:59.485Z,21.59
2023-05-11T15:57:25.979Z,21.21
2023-05-11T15:59:52.540Z,22.36
2023-05-11T16:02:19.090Z,24.29
2023-05-11T16:04:45.581Z,25.85
2023-05-11T16:07:12.018Z,27.02
2023-05-11T16:09:38.589Z,27.66
2023-05-11T16:12:05.639Z,28.25
2023-05-11T16:14:32.272Z,28.74
2023-05-11T16:17:01.320Z,29.11
2023-05-11T16:19:28.058Z,29.21
2023-05-11T16:21:54.876Z,29.45
2023-05-11T16:24:21.346Z,29.39
2023-05-11T16:26:47.740Z,29.46
2023-05-11T16:29:14.144Z,29.54
2023-05-11T16:31:40.831Z,29.25
2023-05-11T16:34:07.364Z,27.80
2023-05-11T16:36:33.850Z,26.27
2023-05-11T16:39:00.350Z,24.89
2023-05-11T16:41:26.922Z,23.75
2023-05-11T16:43:53.361Z,23.03
2023-05-11T16:46:19.975Z,22.48
2023-05-11T16:48:46.459Z,22.05
2023-05-11T16:51:13.003Z,22.37
2023-05-11T16:53:39.710Z,23.13
2023-05-11T16:56:06.262Z,23.84
2023-05-11T16:58:32.709Z,23.96
2023-05-11T17:00:59.711Z,23.32
2023-05-11T17:03:26.332Z,22.68
2023-05-11T17:05:53.232Z,22.29
2023-05-11T17:08:19.711Z,22.68
2023-05-11T17:10:46.222Z,23.18
2023-05-11T17:13:12.653Z,22.59
2023-05-11T17:15:39.303Z,21.58
2023-05-11T17:18:06.165Z,20.92
2023-05-11T17:20:32.749Z,20.62
2023-05-11T17:22:59.885Z,20.33
2023-05-11T17:25:26.370Z,19.80
2023-05-11T17:27:53.445Z,19.36
2023-05-11T17:30:20.946Z,18.98
2023-05-11T17:32:48.892Z,18.68
2023-05-11T17:35:15.877Z,18.43
2023-05-11T17:37:42.375Z,18.22
2023-05-11T17:40:09.471Z,18.00
2023-05-11T17:42:35.964Z,17.77
2023-05-11T17:45:02.526Z,17.63
2023-05-11T17:47:29.390Z,17.54
2023-05-11T17:49:55.974Z,17.50
2023-05-11T17:52:23.730Z,17.43
2023-05-11T17:54:50.481Z,17.17
2023-05-11T17:57:17.022Z,16.92
2023-05-11T17:59:43.534Z,16.71
2023-05-11T18:02:10.021Z,16.53
2023-05-11T18:04:36.464Z,16.36
2023-05-11T18:07:03.213Z,16.21
2023-05-11T18:09:29.629Z,16.06
2023-05-11T18:11:56.132Z,15.95
2023-05-11T18:14:22.652Z,15.85
2023-05-11T18:16:49.108Z,15.75
2023-05-11T18:19:15.662Z,15.67
2023-05-11T18:21:42.418Z,15.62
2023-05-11T18:24:08.907Z,15.57
2023-05-11T18:26:35.597Z,15.49
2023-05-11T18:29:02.078Z,15.42
2023-05-11T18:31:31.646Z,15.37
2023-05-11T18:33:58.243Z,15.32
2023-05-11T18:36:24.926Z,15.26
2023-05-11T18:38:51.462Z,15.19
2023-05-11T18:41:17.949Z,15.15
2023-05-11T18:43:44.621Z,15.10
2023-05-11T18:46:11.595Z,15.07
2023-05-11T18:48:37.996Z,15.08
2023-05-11T18:51:04.814Z,15.10
2023-05-11T18:53:32.063Z,15.10
2023-05-11T18:55:58.598Z,15.09
2023-05-11T18:58:25.117Z,15.07
2023-05-11T19:00:51.955Z,15.05
2023-05-11T19:03:20.113Z,15.06
2023-05-11T19:05:48.713Z,15.07
2023-05-11T19:08:15.232Z,15.05
2023-05-11T19:10:41.787Z,15.04
2023-05-11T19:13:08.340Z,15.02
2023-05-11T19:15:34.913Z,14.98
2023-05-11T19:18:01.760Z,14.89
2023-05-11T19:20:28.231Z,14.81
2023-05-11T19:22:54.680Z,14.73
2023-05-11T19:25:21.167Z,14.63
2023-05-11T19:27:47.725Z,14.54
2023-05-11T19:30:14.329Z,14.38
2023-05-11T19:32:42.428Z,14.22
2023-05-11T19:35:11.080Z,14.05
2023-05-11T19:37:37.706Z,13.89
2023-05-11T19:40:37.172Z,13.74
2023-05-11T19:42:51.961Z,13.58
2023-05-11T19:45:18.568Z,13.45
2023-05-11T19:47:45.132Z,13.30
2023-05-11T19:50:11.582Z,13.11
2023-05-11T19:52:38.207Z,12.93
2023-05-11T19:55:05.342Z,12.77
2023-05-11T19:57:32.432Z,12.63
2023-05-11T19:59:58.854Z,12.50
2023-05-11T20:02:25.505Z,12.35
2023-05-11T20:04:52.172Z,12.18
2023-05-11T20:07:18.607Z,12.02
2023-05-11T20:09:45.301Z,11.85
2023-05-11T20:12:11.804Z,11.76
2023-05-11T20:14:38.251Z,11.68
2023-05-11T20:17:05.112Z,11.58
2023-05-11T20:19:31.562Z,11.51
2023-05-11T20:21:58.160Z,11.42
2023-05-11T20:24:24.668Z,11.30
2023-05-11T20:26:51.520Z,11.17
2023-05-11T20:29:18.231Z,11.01
2023-05-11T20:31:44.794Z,10.84
2023-05-11T20:34:11.347Z,10.68
2023-05-11T20:36:38.032Z,10.53
2023-05-11T20:39:04.906Z,10.39
2023-05-11T20:41:32.790Z,10.31
2023-05-11T20:43:59.259Z,10.25
2023-05-11T20:46:25.858Z,10.23
2023-05-11T20:48:52.404Z,10.22
2023-05-11T20:51:18.885Z,10.22
2023-05-11T20:53:45.349Z,10.18
2023-05-11T20:56:11.869Z,10.07
2023-05-11T20:58:38.282Z,9.94
2023-05-11T21:01:04.779Z,9.81
2023-05-11T21:03:31.656Z,9.70
2023-05-11T21:05:58.285Z,9.64
2023-05-11T21:08:24.909Z,9.61
2023-05-11T21:10:51.646Z,9.51
2023-05-11T21:13:18.028Z,9.38
2023-05-11T21:15:44.652Z,9.33
2023-05-11T21:18:11.169Z,9.25
2023-05-11T21:20:37.798Z,9.14
2023-05-11T21:23:04.288Z,9.04
2023-05-11T21:25:31.000Z,9.00
2023-05-11T21:27:57.413Z,9.03
2023-05-11T21:30:23.872Z,9.07
2023-05-11T21:32:50.443Z,9.11
2023-05-11T21:35:17.042Z,9.09
2023-05-11T21:37:43.655Z,9.06
2023-05-11T21:40:11.261Z,9.03
2023-05-11T21:42:37.800Z,9.00
2023-05-11T21:45:04.975Z,9.02
2023-05-11T21:47:31.681Z,9.02
2023-05-11T21:49:58.870Z,9.00
2023-05-11T21:52:25.323Z,8.99
2023-05-11T21:54:51.861Z,8.97
2023-05-11T21:57:18.440Z,8.92
2023-05-11T21:59:44.990Z,8.87
2023-05-11T22:02:11.658Z,8.78
2023-05-11T22:04:38.221Z,8.72
2023-05-11T22:07:05.210Z,8.68
2023-05-11T22:09:31.818Z,8.64
2023-05-11T22:11:58.267Z,8.59
2023-05-11T22:14:24.727Z,8.56
2023-05-11T22:16:51.271Z,8.49
2023-05-11T22:19:17.684Z,8.43
2023-05-11T22:21:44.100Z,8.35
2023-05-11T22:24:10.618Z,8.26
2023-05-11T22:26:37.235Z,8.15
2023-05-11T22:29:03.889Z,8.06
2023-05-11T22:31:30.376Z,7.95
2023-05-11T22:33:57.110Z,7.83
2023-05-11T22:36:23.847Z,7.71
2023-05-11T22:38:50.313Z,7.59
2023-05-11T22:41:16.878Z,7.47
2023-05-11T22:43:43.360Z,7.35
2023-05-11T22:46:09.963Z,7.28
2023-05-11T22:48:36.671Z,7.25
2023-05-11T22:51:04.149Z,7.21
2023-05-11T22:53:30.674Z,7.19
2023-05-11T22:55:57.152Z,7.13
2023-05-11T22:58:23.655Z,7.07
2023-05-11T23:00:50.491Z,6.98
2023-05-11T23:03:17.015Z,6.90
2023-05-11T23:05:43.517Z,6.84
2023-05-11T23:08:10.176Z,6.80
2023-05-11T23:10:36.630Z,6.72
2023-05-11T23:13:03.127Z,6.61
2023-05-11T23:15:29.807Z,6.57
2023-05-11T23:17:56.351Z,6.54
2023-05-11T23:20:23.726Z,6.51
2023-05-11T23:22:50.268Z,6.48
2023-05-11T23:25:17.011Z,6.46
2023-05-11T23:27:43.556Z,6.45
2023-05-11T23:30:10.682Z,6.43
2023-05-11T23:32:43.576Z,6.43
2023-05-11T23:35:10.113Z,6.39
2023-05-11T23:37:36.701Z,6.29
2023-05-11T23:40:03.583Z,6.21
2023-05-11T23:42:30.453Z,6.16
2023-05-11T23:44:57.334Z,6.10
2023-05-11T23:47:24.228Z,6.04
2023-05-11T23:49:50.916Z,5.98
2023-05-11T23:52:17.753Z,5.93
2023-05-11T23:54:44.187Z,5.89
2023-05-11T23:57:10.834Z,5.85
2023-05-11T23:59:37.383Z,5.80
